Ocean Highway — H3IE — position and weather

sailwx.info

Track history (hours):
 
Tides and Currents Weather Stations Pressure Air Temp Water Temp Dewpoint Dewpoint Depression Visibility Wind Speed Wind Dir Waves Ship Positions

Ocean Highway

Last reported at 2017-Jun-08 21:49 UTC. Time now 2017-Jun-25 07:12 UTC.
Position N 01°15' E 104°04'.
Warning: this ship's position is 16 days out of date.

Length 179.1 m; beam 32.2 m.

Type: Cargo ship. MMSI: 353951000.

Date/timePositionNaut miles runAvg speedWind from/ knotsBaromVisibWave heightAir tempDewpointWater temp
2017-Jun-08 21:49N 01°15' E 104°04'618.0
2017-Jun-08 21:31N 01°14' E 103°58'815.8
2017-Jun-08 21:00N 01°11' E 103°51'510.3
2017-Jun-08 20:30N 01°14' E 103°47'3 6.0
2017-Jun-08 20:00N 01°17' E 103°45'0 0.1
2017-Jun-08 19:28N 01°17' E 103°45'0 0.0
2017-Jun-08 18:49N 01°17' E 103°45'0 0.0
2017-Jun-08 18:28N 01°17' E 103°45'0 0.0
2017-Jun-08 17:58N 01°17' E 103°45'0 0.0
2017-Jun-08 17:28N 01°17' E 103°45'0 0.0
2017-Jun-08 16:58N 01°17' E 103°45'0 0.0
2017-Jun-08 16:28N 01°17' E 103°45'0 0.0
2017-Jun-08 15:58N 01°17' E 103°45'0 0.0
2017-Jun-08 15:28N 01°17' E 103°45'0 0.0
2017-Jun-08 14:58N 01°17' E 103°45'0 0.0
2017-Jun-08 14:28N 01°17' E 103°45'0 0.0
2017-Jun-08 13:28N 01°17' E 103°45'0 0.0
2017-Jun-08 12:58N 01°17' E 103°45'0 0.0
2017-Jun-08 12:28N 01°17' E 103°45'0 0.0
2017-Jun-08 11:58N 01°17' E 103°45'0 0.0
2017-Jun-08 11:28N 01°17' E 103°45'0 0.0
2017-Jun-08 10:58N 01°17' E 103°45'0 0.0
2017-Jun-08 10:28N 01°17' E 103°45'0 0.9
2017-Jun-08 10:00N 01°17' E 103°45'5 9.1
2017-Jun-08 09:30N 01°13' E 103°48'510.6
2017-Jun-08 09:00N 01°13' E 103°53'4 8.6
2017-Jun-08 08:30N 01°15' E 103°57'510.8
2017-Jun-08 08:00N 01°16' E 104°02'  
2017-Jun-03 21:59N 01°14' E 104°02'715.8
2017-Jun-03 21:31N 01°12' E 103°55'611.7
2017-Jun-03 21:00N 01°11' E 103°49'5 9.6
2017-Jun-03 20:30N 01°15' E 103°46'2 4.2
2017-Jun-03 19:58N 01°17' E 103°45'0 0.0
2017-Jun-03 19:28N 01°17' E 103°45'0 0.0
2017-Jun-03 18:58N 01°17' E 103°45'0 0.0
2017-Jun-03 18:28N 01°17' E 103°45'0 0.0
2017-Jun-03 17:58N 01°17' E 103°45'0 0.0
2017-Jun-03 17:25N 01°17' E 103°45'0 0.0
2017-Jun-03 16:55N 01°17' E 103°45'0 0.0
2017-Jun-03 16:28N 01°17' E 103°45'0 0.0
2017-Jun-03 15:58N 01°17' E 103°45'0 0.0
2017-Jun-03 15:28N 01°17' E 103°45'0 0.0
2017-Jun-03 14:55N 01°17' E 103°45'0 0.0
2017-Jun-03 13:58N 01°17' E 103°45'0 0.0
2017-Jun-03 13:28N 01°17' E 103°45'0 0.0
2017-Jun-03 12:58N 01°17' E 103°45'0 0.1
2017-Jun-03 12:30N 01°17' E 103°45'1 2.9
2017-Jun-03 12:00N 01°16' E 103°46'510.8
2017-Jun-03 11:30N 01°12' E 103°50'5 9.6
2017-Jun-03 11:00N 01°14' E 103°55'3 5.6
2017-Jun-03 10:30N 01°15' E 103°57'4 8.2
2017-Jun-03 10:00N 01°15' E 104°01'  
Track history (hours):
 
Tides and Currents Weather Stations Pressure Air Temp Water Temp Dewpoint Dewpoint Depression Visibility Wind Speed Wind Dir Waves Ship Positions

Ocean Highway

Last reported at 2017-Jun-08 21:49 UTC. Time now 2017-Jun-25 07:12 UTC.
Position N 01°15' E 104°04'.
Warning: this ship's position is 16 days out of date.

Length 179.1 m; beam 32.2 m.

Type: Cargo ship. MMSI: 353951000.

Date/timePositionNaut miles runAvg speedWind from/ knotsBaromVisibWave heightAir tempDewpointWater temp
2017-Jun-08 21:49N 01°15' E 104°04'618.0
2017-Jun-08 21:31N 01°14' E 103°58'815.8
2017-Jun-08 21:00N 01°11' E 103°51'510.3
2017-Jun-08 20:30N 01°14' E 103°47'3 6.0
2017-Jun-08 20:00N 01°17' E 103°45'0 0.1
2017-Jun-08 19:28N 01°17' E 103°45'0 0.0
2017-Jun-08 18:49N 01°17' E 103°45'0 0.0
2017-Jun-08 18:28N 01°17' E 103°45'0 0.0
2017-Jun-08 17:58N 01°17' E 103°45'0 0.0
2017-Jun-08 17:28N 01°17' E 103°45'0 0.0
2017-Jun-08 16:58N 01°17' E 103°45'0 0.0
2017-Jun-08 16:28N 01°17' E 103°45'0 0.0
2017-Jun-08 15:58N 01°17' E 103°45'0 0.0
2017-Jun-08 15:28N 01°17' E 103°45'0 0.0
2017-Jun-08 14:58N 01°17' E 103°45'0 0.0
2017-Jun-08 14:28N 01°17' E 103°45'0 0.0
2017-Jun-08 13:28N 01°17' E 103°45'0 0.0
2017-Jun-08 12:58N 01°17' E 103°45'0 0.0
2017-Jun-08 12:28N 01°17' E 103°45'0 0.0
2017-Jun-08 11:58N 01°17' E 103°45'0 0.0
2017-Jun-08 11:28N 01°17' E 103°45'0 0.0
2017-Jun-08 10:58N 01°17' E 103°45'0 0.0
2017-Jun-08 10:28N 01°17' E 103°45'0 0.9
2017-Jun-08 10:00N 01°17' E 103°45'5 9.1
2017-Jun-08 09:30N 01°13' E 103°48'510.6
2017-Jun-08 09:00N 01°13' E 103°53'4 8.6
2017-Jun-08 08:30N 01°15' E 103°57'510.8
2017-Jun-08 08:00N 01°16' E 104°02'  
2017-Jun-03 21:59N 01°14' E 104°02'715.8
2017-Jun-03 21:31N 01°12' E 103°55'611.7
2017-Jun-03 21:00N 01°11' E 103°49'5 9.6
2017-Jun-03 20:30N 01°15' E 103°46'2 4.2
2017-Jun-03 19:58N 01°17' E 103°45'0 0.0
2017-Jun-03 19:28N 01°17' E 103°45'0 0.0
2017-Jun-03 18:58N 01°17' E 103°45'0 0.0
2017-Jun-03 18:28N 01°17' E 103°45'0 0.0
2017-Jun-03 17:58N 01°17' E 103°45'0 0.0
2017-Jun-03 17:25N 01°17' E 103°45'0 0.0
2017-Jun-03 16:55N 01°17' E 103°45'0 0.0
2017-Jun-03 16:28N 01°17' E 103°45'0 0.0
2017-Jun-03 15:58N 01°17' E 103°45'0 0.0
2017-Jun-03 15:28N 01°17' E 103°45'0 0.0
2017-Jun-03 14:55N 01°17' E 103°45'0 0.0
2017-Jun-03 13:58N 01°17' E 103°45'0 0.0
2017-Jun-03 13:28N 01°17' E 103°45'0 0.0
2017-Jun-03 12:58N 01°17' E 103°45'0 0.1
2017-Jun-03 12:30N 01°17' E 103°45'1 2.9
2017-Jun-03 12:00N 01°16' E 103°46'510.8
2017-Jun-03 11:30N 01°12' E 103°50'5 9.6
2017-Jun-03 11:00N 01°14' E 103°55'3 5.6
2017-Jun-03 10:30N 01°15' E 103°57'4 8.2
2017-Jun-03 10:00N 01°15' E 104°01'  

Dump ship's entire track history